Valley Mills, New York
Current Conditions -  °F | °C
As of 4:53 AM on Saturday 20 Dec 2014 (Local Time) from KRME Reporting Station
Overcast Overcast  
Wind Chill: 20°   Ceiling: 1500
Heat Index: 20°   Visibility: 10mi
Dew Point: 16°   Wind: 3mph
Humidity: 85%   Direction: 110°ESE
Pressure: 30.26"   Gusts: NA
Location:  42.9826°N, 75.5909°W
Report Text: KRME 200953Z AUTO 11003KT 10SM OVC015 M07/M09 A3026 RMK AO2 SLP251 T10671089
Loading
Personal Weather Stations






























Interactive Weather Map New forecast layout! Learn more

10-Day Weather Forecast

Advertisements
Track Severe Weather on mobile